createdAt,value
2022-09-22T00:01:25.677Z,99.90
2022-09-22T00:03:56.459Z,99.90
2022-09-22T00:06:26.164Z,99.90
2022-09-22T00:08:56.147Z,99.90
2022-09-22T00:11:28.470Z,99.90
2022-09-22T00:14:00.014Z,99.90
2022-09-22T00:16:31.899Z,99.90
2022-09-22T00:18:59.830Z,99.90
2022-09-22T00:21:27.781Z,99.90
2022-09-22T00:23:56.061Z,99.90
2022-09-22T00:26:25.616Z,99.90
2022-09-22T00:28:53.697Z,99.90
2022-09-22T00:31:24.723Z,99.90
2022-09-22T00:33:53.559Z,99.90
2022-09-22T00:36:23.152Z,99.90
2022-09-22T00:38:51.545Z,99.90
2022-09-22T00:41:22.007Z,99.90
2022-09-22T00:43:51.923Z,99.90
2022-09-22T00:46:24.006Z,99.90
2022-09-22T00:49:01.683Z,99.90
2022-09-22T00:51:34.367Z,99.90
2022-09-22T00:54:05.508Z,99.90
2022-09-22T00:56:38.407Z,99.90
2022-09-22T00:59:12.354Z,99.90
2022-09-22T01:01:41.629Z,99.90
2022-09-22T01:04:09.898Z,99.90
2022-09-22T01:06:40.622Z,99.90
2022-09-22T01:09:09.631Z,99.90
2022-09-22T01:11:39.030Z,99.90
2022-09-22T01:14:17.578Z,99.90
2022-09-22T01:16:57.272Z,99.90
2022-09-22T01:19:56.832Z,99.90
2022-09-22T01:22:43.287Z,99.90
2022-09-22T01:25:32.121Z,99.90
2022-09-22T01:28:23.322Z,99.90
2022-09-22T01:30:58.619Z,99.90
2022-09-22T01:33:34.922Z,99.90
2022-09-22T01:36:21.548Z,99.90
2022-09-22T01:38:57.815Z,99.90
2022-09-22T01:41:42.844Z,99.90
2022-09-22T01:44:16.411Z,99.90
2022-09-22T01:46:53.159Z,99.90
2022-09-22T01:49:23.573Z,99.90
2022-09-22T01:51:56.206Z,99.90
2022-09-22T01:54:29.570Z,99.90
2022-09-22T01:57:02.644Z,99.90
2022-09-22T01:59:32.720Z,99.90
2022-09-22T02:02:05.932Z,99.90
2022-09-22T02:04:39.235Z,99.90
2022-09-22T02:07:10.489Z,99.90
2022-09-22T02:09:41.964Z,99.90
2022-09-22T02:12:09.763Z,99.90
2022-09-22T02:14:37.629Z,99.90
2022-09-22T02:17:06.791Z,99.90
2022-09-22T02:19:38.367Z,99.90
2022-09-22T02:22:06.962Z,99.90
2022-09-22T02:24:36.967Z,99.90
2022-09-22T02:27:07.977Z,99.90
2022-09-22T02:29:39.500Z,99.90
2022-09-22T02:32:11.367Z,99.90
2022-09-22T02:34:39.488Z,99.90
2022-09-22T02:37:16.717Z,99.90
2022-09-22T02:39:52.974Z,99.90
2022-09-22T02:42:28.375Z,99.90
2022-09-22T02:45:01.601Z,99.90
2022-09-22T02:47:36.409Z,99.90
2022-09-22T02:50:09.056Z,99.90
2022-09-22T02:52:37.691Z,99.90
2022-09-22T02:55:06.750Z,99.90
2022-09-22T02:57:34.583Z,99.90
2022-09-22T03:00:02.866Z,99.90
2022-09-22T03:02:31.991Z,99.90
2022-09-22T03:04:59.792Z,99.90
2022-09-22T03:07:27.611Z,99.90
2022-09-22T03:09:55.397Z,99.90
2022-09-22T03:12:23.333Z,99.90
2022-09-22T03:14:51.152Z,99.90
2022-09-22T03:17:18.935Z,99.90
2022-09-22T03:19:48.080Z,99.90
2022-09-22T03:22:15.951Z,99.90
2022-09-22T03:24:43.713Z,99.90
2022-09-22T03:27:11.470Z,99.90
2022-09-22T03:29:39.515Z,99.90
2022-09-22T03:32:07.420Z,99.90
2022-09-22T03:34:35.177Z,99.90
2022-09-22T03:37:04.395Z,99.90
2022-09-22T03:39:32.171Z,99.90
2022-09-22T03:41:59.964Z,99.90
2022-09-22T03:44:27.753Z,99.90
2022-09-22T03:46:55.535Z,99.90
2022-09-22T03:49:23.392Z,99.90
2022-09-22T03:51:51.188Z,99.90
2022-09-22T03:54:20.754Z,99.90
2022-09-22T03:56:48.908Z,99.90
2022-09-22T03:59:17.113Z,99.90
2022-09-22T04:01:45.307Z,99.90
2022-09-22T04:04:13.112Z,99.90
2022-09-22T04:06:42.037Z,99.90
2022-09-22T04:09:10.054Z,99.90
2022-09-22T04:11:39.263Z,99.90
2022-09-22T04:14:07.073Z,99.90
2022-09-22T04:16:34.886Z,99.90
2022-09-22T04:19:04.955Z,99.90
2022-09-22T04:21:33.166Z,99.90
2022-09-22T04:24:01.218Z,99.90
2022-09-22T04:26:29.019Z,99.90
2022-09-22T04:28:58.116Z,99.90
2022-09-22T04:31:25.872Z,99.90
2022-09-22T04:33:53.735Z,99.90
2022-09-22T04:36:21.490Z,99.90
2022-09-22T04:38:49.305Z,99.90
2022-09-22T04:41:17.072Z,99.90
2022-09-22T04:43:45.213Z,99.90
2022-09-22T04:46:14.347Z,99.90
2022-09-22T04:48:42.159Z,99.90
2022-09-22T04:51:09.895Z,99.90
2022-09-22T04:53:37.665Z,99.90
2022-09-22T04:56:05.661Z,99.90
2022-09-22T04:58:33.564Z,99.90
2022-09-22T05:01:05.097Z,99.90
2022-09-22T05:03:38.022Z,99.90
2022-09-22T05:06:06.461Z,99.90
2022-09-22T05:08:34.545Z,99.90
2022-09-22T05:11:06.562Z,99.90
2022-09-22T05:13:35.303Z,99.90
2022-09-22T05:16:05.263Z,99.90
2022-09-22T05:18:34.501Z,99.90
2022-09-22T05:21:02.642Z,99.90
2022-09-22T05:23:32.133Z,99.90
2022-09-22T05:26:00.970Z,99.90
2022-09-22T05:28:29.450Z,99.90
2022-09-22T05:30:57.167Z,99.90
2022-09-22T05:33:24.971Z,99.90
2022-09-22T05:35:54.082Z,99.90
2022-09-22T05:38:22.051Z,99.90
2022-09-22T05:40:49.884Z,99.90
2022-09-22T05:43:17.863Z,99.90
2022-09-22T05:45:45.691Z,99.90
2022-09-22T05:48:13.481Z,99.90
2022-09-22T05:50:41.217Z,99.90
2022-09-22T05:53:11.353Z,99.90
2022-09-22T05:55:40.055Z,99.90
2022-09-22T05:58:09.290Z,99.90
2022-09-22T06:00:37.057Z,99.90
2022-09-22T06:03:05.199Z,99.90
2022-09-22T06:05:35.293Z,99.90
2022-09-22T06:08:06.527Z,99.90
2022-09-22T06:10:37.803Z,99.90
2022-09-22T06:13:07.343Z,99.90
2022-09-22T06:15:36.208Z,99.90
2022-09-22T06:18:06.973Z,99.90
2022-09-22T06:20:35.373Z,99.90
2022-09-22T06:23:03.154Z,99.90
2022-09-22T06:25:31.091Z,99.90
2022-09-22T06:28:05.615Z,99.90
2022-09-22T06:30:33.948Z,99.90
2022-09-22T06:33:02.055Z,99.90
2022-09-22T06:35:37.509Z,99.90
2022-09-22T06:38:07.406Z,99.90
2022-09-22T06:40:36.474Z,99.90
2022-09-22T06:43:10.515Z,99.90
2022-09-22T06:45:38.450Z,99.90
2022-09-22T06:48:10.160Z,99.90
2022-09-22T06:50:40.794Z,99.90
2022-09-22T06:53:11.281Z,99.90
2022-09-22T06:55:41.466Z,99.90
2022-09-22T06:58:11.533Z,99.90
2022-09-22T07:00:41.838Z,99.90
2022-09-22T07:03:15.942Z,99.90
2022-09-22T07:05:53.654Z,99.90
2022-09-22T07:08:22.091Z,99.90
2022-09-22T07:10:56.906Z,99.90
2022-09-22T07:13:29.612Z,99.90
2022-09-22T07:16:01.295Z,99.90
2022-09-22T07:18:29.411Z,99.90
2022-09-22T07:21:02.967Z,99.90
2022-09-22T07:23:30.763Z,99.90
2022-09-22T07:26:00.849Z,99.90
2022-09-22T07:28:31.522Z,99.90
2022-09-22T07:31:05.889Z,99.90
2022-09-22T07:33:33.797Z,99.90
2022-09-22T07:36:08.727Z,99.90
2022-09-22T07:38:37.211Z,99.90
2022-09-22T07:41:06.924Z,99.90
2022-09-22T07:43:36.918Z,99.90
2022-09-22T07:46:04.714Z,99.90
2022-09-22T07:48:42.868Z,99.90
2022-09-22T07:51:16.467Z,99.90
2022-09-22T07:53:45.743Z,99.90
2022-09-22T07:56:15.202Z,99.90
2022-09-22T07:58:49.911Z,99.90
2022-09-22T08:01:18.507Z,99.90
2022-09-22T08:03:47.224Z,99.90
2022-09-22T08:06:18.467Z,99.90
2022-09-22T08:08:48.273Z,99.90
2022-09-22T08:11:17.949Z,99.90
2022-09-22T08:13:53.305Z,99.90
2022-09-22T08:16:22.518Z,99.90
2022-09-22T08:18:52.293Z,99.90
2022-09-22T08:21:20.042Z,99.90
2022-09-22T08:23:52.776Z,99.90
2022-09-22T08:26:21.996Z,99.90
2022-09-22T08:28:54.027Z,99.90
2022-09-22T08:31:23.218Z,99.90
2022-09-22T08:33:52.901Z,99.90
2022-09-22T08:36:21.545Z,99.90
2022-09-22T08:38:49.727Z,99.90
2022-09-22T08:41:25.487Z,99.90
2022-09-22T08:43:56.550Z,99.90
2022-09-22T08:46:28.690Z,99.90
2022-09-22T08:49:20.337Z,99.90
2022-09-22T08:51:53.023Z,99.90
2022-09-22T08:54:23.118Z,99.90
2022-09-22T08:57:03.544Z,99.90
2022-09-22T08:59:37.181Z,99.90
2022-09-22T09:02:32.495Z,99.90
2022-09-22T09:05:48.239Z,99.90
2022-09-22T09:08:39.220Z,99.90
2022-09-22T09:11:20.571Z,99.90
2022-09-22T09:14:08.033Z,99.80
2022-09-22T09:16:45.553Z,98.80
2022-09-22T09:19:18.624Z,99.90
2022-09-22T09:21:51.526Z,99.80
2022-09-22T09:27:22.113Z,99.40
2022-09-22T09:29:58.947Z,98.00
2022-09-22T09:32:34.610Z,97.30
2022-09-22T09:37:36.518Z,98.70
2022-09-22T09:40:05.911Z,98.80
2022-09-22T09:42:36.196Z,97.90
2022-09-22T09:45:04.738Z,98.10
2022-09-22T09:47:59.199Z,97.60
2022-09-22T09:50:32.098Z,97.00
2022-09-22T09:53:00.542Z,97.30
2022-09-22T09:55:28.492Z,97.30
2022-09-22T09:58:04.846Z,96.30
2022-09-22T10:00:33.065Z,96.40
2022-09-22T10:03:21.768Z,97.10
2022-09-22T10:06:00.551Z,96.40
2022-09-22T10:08:32.083Z,95.50
2022-09-22T10:11:01.867Z,95.70
2022-09-22T10:13:32.179Z,97.00
2022-09-22T10:16:21.931Z,96.60
2022-09-22T10:18:52.877Z,95.70
2022-09-22T10:21:22.241Z,96.20
2022-09-22T10:23:51.057Z,96.00
2022-09-22T10:26:21.972Z,95.50
2022-09-22T10:29:16.032Z,95.70
2022-09-22T10:32:02.493Z,96.00
2022-09-22T10:34:34.317Z,94.70
2022-09-22T10:37:04.512Z,94.30
2022-09-22T10:39:44.032Z,93.30
2022-09-22T10:42:23.199Z,94.60
2022-09-22T10:44:52.804Z,99.90
2022-09-22T10:47:39.560Z,99.90
2022-09-22T10:50:35.629Z,99.90
2022-09-22T10:53:13.613Z,99.90
2022-09-22T10:55:54.080Z,99.90
2022-09-22T10:58:28.137Z,99.90
2022-09-22T11:01:11.578Z,99.90
2022-09-22T11:04:15.234Z,99.90
2022-09-22T11:07:14.463Z,99.90
2022-09-22T11:10:04.920Z,99.90
2022-09-22T11:12:44.549Z,99.90
2022-09-22T11:15:22.969Z,99.90
2022-09-22T11:18:08.068Z,99.90
2022-09-22T11:20:39.607Z,99.90
2022-09-22T11:23:33.396Z,99.90
2022-09-22T11:26:25.289Z,99.90
2022-09-22T11:29:06.646Z,99.90
2022-09-22T11:31:53.130Z,99.90
2022-09-22T11:34:45.131Z,99.90
2022-09-22T11:37:28.849Z,99.90
2022-09-22T11:40:17.745Z,99.90
2022-09-22T11:42:55.184Z,99.90
2022-09-22T11:45:41.856Z,99.90
2022-09-22T11:48:21.354Z,99.90
2022-09-22T11:51:12.778Z,99.90
2022-09-22T11:53:52.886Z,99.90
2022-09-22T11:56:34.067Z,99.90
2022-09-22T11:59:05.494Z,99.90
2022-09-22T12:01:40.132Z,99.90
2022-09-22T12:04:18.010Z,99.90
2022-09-22T12:06:50.427Z,99.90
2022-09-22T12:09:35.929Z,99.90
2022-09-22T12:12:11.610Z,99.90
2022-09-22T12:14:40.663Z,99.90
2022-09-22T12:17:13.935Z,99.90
2022-09-22T12:19:54.279Z,99.90
2022-09-22T12:22:28.839Z,99.90
2022-09-22T12:24:56.613Z,99.90
2022-09-22T12:27:28.250Z,99.90
2022-09-22T12:29:58.631Z,99.90
2022-09-22T12:32:32.488Z,99.90
2022-09-22T12:35:01.735Z,99.90
2022-09-22T12:37:31.780Z,99.90
2022-09-22T12:40:22.442Z,99.90
2022-09-22T12:42:54.180Z,99.90
2022-09-22T12:45:30.257Z,99.90
2022-09-22T12:47:59.903Z,99.90
2022-09-22T12:50:38.932Z,99.90
2022-09-22T12:53:13.022Z,99.90
2022-09-22T12:55:40.795Z,99.90
2022-09-22T12:58:53.459Z,99.90
2022-09-22T13:01:33.420Z,99.90
2022-09-22T13:04:22.138Z,99.90
2022-09-22T13:07:00.811Z,99.90
2022-09-22T13:09:31.789Z,99.90
2022-09-22T13:12:36.179Z,99.90
2022-09-22T13:15:24.970Z,99.90
2022-09-22T13:17:54.227Z,99.90
2022-09-22T13:20:25.104Z,99.90
2022-09-22T13:22:56.621Z,99.90
2022-09-22T13:25:27.041Z,99.90
2022-09-22T13:28:13.700Z,99.90
2022-09-22T13:30:43.271Z,99.90
2022-09-22T13:33:21.748Z,99.90
2022-09-22T13:35:56.951Z,99.90
2022-09-22T13:38:24.865Z,99.90
2022-09-22T13:40:53.259Z,99.90
2022-09-22T13:43:28.309Z,99.90
2022-09-22T13:45:58.205Z,99.90
2022-09-22T13:48:31.194Z,99.90
2022-09-22T13:51:03.564Z,99.90
2022-09-22T13:53:32.694Z,99.90
2022-09-22T13:56:01.053Z,99.90
2022-09-22T13:58:36.407Z,99.90
2022-09-22T14:01:13.875Z,99.90
2022-09-22T14:03:44.651Z,99.90
2022-09-22T14:06:14.982Z,99.90
2022-09-22T14:08:44.701Z,99.90
2022-09-22T14:11:15.603Z,99.90
2022-09-22T14:13:45.169Z,99.90
2022-09-22T14:16:23.932Z,99.90
2022-09-22T14:18:58.900Z,99.90
2022-09-22T14:21:26.836Z,99.90
2022-09-22T14:23:56.086Z,99.90
2022-09-22T14:26:33.519Z,99.90
2022-09-22T14:29:15.149Z,99.90
2022-09-22T14:31:46.384Z,99.90
2022-09-22T14:34:21.965Z,99.90
2022-09-22T14:36:51.889Z,99.90
2022-09-22T14:39:23.432Z,99.90
2022-09-22T14:41:58.977Z,99.90
2022-09-22T14:44:42.123Z,99.90
2022-09-22T14:47:19.798Z,99.90
2022-09-22T14:49:49.384Z,99.90
2022-09-22T14:52:26.853Z,99.90
2022-09-22T14:54:56.841Z,99.90
2022-09-22T14:57:26.082Z,99.90
2022-09-22T15:00:15.866Z,99.90
2022-09-22T15:02:49.506Z,99.90
2022-09-22T15:05:29.640Z,99.90
2022-09-22T15:07:59.329Z,99.90
2022-09-22T15:10:29.060Z,99.90
2022-09-22T15:13:18.337Z,99.90
2022-09-22T15:15:47.372Z,99.90
2022-09-22T15:18:16.079Z,99.90
2022-09-22T15:20:48.070Z,99.90
2022-09-22T15:23:18.953Z,99.90
2022-09-22T15:25:47.431Z,99.90
2022-09-22T15:28:17.063Z,99.90
2022-09-22T15:30:47.164Z,99.90
2022-09-22T15:33:16.202Z,99.90
2022-09-22T15:35:47.349Z,99.90
2022-09-22T15:38:19.170Z,99.90
2022-09-22T15:40:48.095Z,99.90
2022-09-22T15:43:23.370Z,99.90
2022-09-22T15:45:56.174Z,99.90
2022-09-22T15:48:28.322Z,99.90
2022-09-22T15:50:59.838Z,99.90
2022-09-22T15:53:30.254Z,99.90
2022-09-22T15:55:59.673Z,99.90
2022-09-22T15:58:33.604Z,99.90
2022-09-22T16:01:02.256Z,99.90
2022-09-22T16:03:31.344Z,99.90
2022-09-22T16:06:04.300Z,99.90
2022-09-22T16:08:42.010Z,99.90
2022-09-22T16:11:13.832Z,99.90
2022-09-22T16:13:42.001Z,99.90
2022-09-22T16:16:10.799Z,99.90
2022-09-22T16:18:41.692Z,99.90
2022-09-22T16:21:20.291Z,99.90
2022-09-22T16:23:48.070Z,99.90
2022-09-22T16:26:16.907Z,99.90
2022-09-22T16:28:44.676Z,99.90
2022-09-22T16:31:13.437Z,99.90
2022-09-22T16:33:41.243Z,99.90
2022-09-22T16:36:10.416Z,99.90
2022-09-22T16:38:39.402Z,99.90
2022-09-22T16:41:18.224Z,99.90
2022-09-22T16:43:45.988Z,99.90
2022-09-22T16:46:30.035Z,99.90
2022-09-22T16:49:00.414Z,99.90
2022-09-22T16:51:30.164Z,99.90
2022-09-22T16:53:58.440Z,99.90
2022-09-22T16:56:28.100Z,99.90
2022-09-22T16:58:56.302Z,99.90
2022-09-22T17:01:24.706Z,99.90
2022-09-22T17:03:53.748Z,99.90
2022-09-22T17:06:24.252Z,99.90
2022-09-22T17:08:54.976Z,99.90
2022-09-22T17:11:29.369Z,99.90
2022-09-22T17:13:59.792Z,99.90
2022-09-22T17:16:29.899Z,99.90
2022-09-22T17:19:00.165Z,99.90
2022-09-22T17:21:32.292Z,99.90
2022-09-22T17:24:04.810Z,99.90
2022-09-22T17:26:35.171Z,99.90
2022-09-22T17:29:03.201Z,99.90
2022-09-22T17:31:31.862Z,99.90
2022-09-22T17:33:59.978Z,99.90
2022-09-22T17:36:29.280Z,99.90
2022-09-22T17:38:58.508Z,99.90
2022-09-22T17:41:29.631Z,99.90
2022-09-22T17:43:57.671Z,99.90
2022-09-22T17:46:26.819Z,99.90
2022-09-22T17:49:12.806Z,99.90
2022-09-22T17:51:59.702Z,99.90
2022-09-22T17:54:47.260Z,99.90
2022-09-22T17:57:18.789Z,99.90
2022-09-22T17:59:47.245Z,99.90
2022-09-22T18:02:16.743Z,99.90
2022-09-22T18:04:45.304Z,99.90
2022-09-22T18:07:17.801Z,99.90
2022-09-22T18:09:47.287Z,99.90
2022-09-22T18:12:21.290Z,99.90
2022-09-22T18:14:52.028Z,99.90
2022-09-22T18:17:21.680Z,99.90
2022-09-22T18:19:49.478Z,99.90
2022-09-22T18:22:20.917Z,1.00
2022-09-22T18:24:50.369Z,1.00
2022-09-22T18:27:20.573Z,1.00
2022-09-22T18:29:49.992Z,1.00
2022-09-22T18:32:20.005Z,1.00
2022-09-22T18:34:51.047Z,89.60
2022-09-22T18:37:18.772Z,99.90
2022-09-22T18:39:46.586Z,99.90
2022-09-22T18:42:14.739Z,92.20
2022-09-22T18:44:44.090Z,99.90
2022-09-22T18:47:16.100Z,99.90
2022-09-22T18:49:44.261Z,99.90
2022-09-22T18:52:12.340Z,99.90
2022-09-22T18:54:43.847Z,99.90
2022-09-22T18:57:13.224Z,99.90
2022-09-22T18:59:41.514Z,99.90
2022-09-22T19:02:12.287Z,99.90
2022-09-22T19:04:40.406Z,99.90
2022-09-22T19:07:28.176Z,99.90
2022-09-22T19:09:56.483Z,99.90
2022-09-22T19:12:24.264Z,99.90
2022-09-22T19:14:54.408Z,99.90
2022-09-22T19:17:24.687Z,99.90
2022-09-22T19:19:52.710Z,99.90
2022-09-22T19:22:22.143Z,99.90
2022-09-22T19:24:50.756Z,99.90
2022-09-22T19:27:19.110Z,99.90
2022-09-22T19:29:46.914Z,99.90
2022-09-22T19:32:14.655Z,99.90
2022-09-22T19:34:43.728Z,99.90
2022-09-22T19:37:11.469Z,99.90
2022-09-22T19:39:39.483Z,99.90
2022-09-22T19:42:07.882Z,99.90
2022-09-22T19:44:35.665Z,99.90
2022-09-22T19:47:03.407Z,99.90
2022-09-22T19:49:31.272Z,99.90
2022-09-22T19:52:00.365Z,99.90
2022-09-22T19:54:28.130Z,99.90
2022-09-22T19:56:55.854Z,99.90
2022-09-22T19:59:23.614Z,99.90
2022-09-22T20:01:51.414Z,99.90
2022-09-22T20:04:20.884Z,99.90
2022-09-22T20:06:48.710Z,99.90
2022-09-22T20:09:18.678Z,99.90
2022-09-22T20:11:48.566Z,99.90
2022-09-22T20:14:23.739Z,99.90
2022-09-22T20:16:53.419Z,99.90
2022-09-22T20:19:22.684Z,99.90
2022-09-22T20:21:53.107Z,99.90
2022-09-22T20:24:23.699Z,99.90
2022-09-22T20:26:51.496Z,99.90
2022-09-22T20:29:20.694Z,99.90
2022-09-22T20:31:48.449Z,99.90
2022-09-22T20:34:16.536Z,99.90
2022-09-22T20:36:44.530Z,99.90
2022-09-22T20:39:14.879Z,99.90
2022-09-22T20:41:44.417Z,99.90
2022-09-22T20:44:14.727Z,99.90
2022-09-22T20:46:43.302Z,99.90
2022-09-22T20:49:13.309Z,99.90
2022-09-22T20:51:41.129Z,99.90
2022-09-22T20:54:09.133Z,99.90
2022-09-22T20:56:40.799Z,99.90
2022-09-22T20:59:11.814Z,99.90
2022-09-22T21:01:39.606Z,99.90
2022-09-22T21:04:07.667Z,99.90
2022-09-22T21:06:35.443Z,99.90
2022-09-22T21:09:20.813Z,99.90
2022-09-22T21:11:48.575Z,99.90
2022-09-22T21:14:17.826Z,99.90
2022-09-22T21:16:45.605Z,99.90
2022-09-22T21:19:13.360Z,99.90
2022-09-22T21:21:41.738Z,99.90
2022-09-22T21:24:11.008Z,99.90
2022-09-22T21:26:38.832Z,99.90
2022-09-22T21:29:06.676Z,99.90
2022-09-22T21:31:37.203Z,99.90
2022-09-22T21:34:05.066Z,99.90
2022-09-22T21:36:32.859Z,99.90
2022-09-22T21:39:01.399Z,99.90
2022-09-22T21:41:31.176Z,99.90
2022-09-22T21:43:59.935Z,99.90
2022-09-22T21:46:29.517Z,99.90
2022-09-22T21:49:01.372Z,99.90
2022-09-22T21:51:31.042Z,99.90
2022-09-22T21:53:58.802Z,99.90
2022-09-22T21:56:26.979Z,99.90
2022-09-22T21:58:55.867Z,99.90
2022-09-22T22:01:25.407Z,99.90
2022-09-22T22:03:55.464Z,99.90
2022-09-22T22:06:27.447Z,99.90
2022-09-22T22:09:02.232Z,99.90
2022-09-22T22:11:32.664Z,99.90
2022-09-22T22:14:01.909Z,99.90
2022-09-22T22:16:32.986Z,99.90
2022-09-22T22:19:01.138Z,99.90
2022-09-22T22:21:31.910Z,99.90
2022-09-22T22:24:21.876Z,99.90
2022-09-22T22:26:51.754Z,99.90
2022-09-22T22:29:20.950Z,99.90
2022-09-22T22:31:49.896Z,99.90
2022-09-22T22:34:19.277Z,99.90
2022-09-22T22:36:49.272Z,99.90
2022-09-22T22:39:17.339Z,99.90
2022-09-22T22:41:45.458Z,99.90
2022-09-22T22:44:13.297Z,99.90
2022-09-22T22:46:41.076Z,99.90
2022-09-22T22:49:08.979Z,99.90
2022-09-22T22:51:36.785Z,99.90
2022-09-22T22:54:06.746Z,99.90
2022-09-22T22:56:34.684Z,99.90
2022-09-22T22:59:02.481Z,99.90
2022-09-22T23:01:33.044Z,99.90
2022-09-22T23:04:03.075Z,99.90
2022-09-22T23:06:34.063Z,99.90
2022-09-22T23:09:02.309Z,99.90
2022-09-22T23:11:35.577Z,99.90
2022-09-22T23:14:05.439Z,99.90
2022-09-22T23:16:35.435Z,99.90
2022-09-22T23:19:07.624Z,99.90
2022-09-22T23:21:36.661Z,99.90
2022-09-22T23:24:05.686Z,99.90
2022-09-22T23:26:34.758Z,99.90
2022-09-22T23:29:04.150Z,99.90
2022-09-22T23:31:31.985Z,99.90
2022-09-22T23:33:59.857Z,99.90
2022-09-22T23:36:29.817Z,99.90
2022-09-22T23:39:01.862Z,99.90
2022-09-22T23:41:29.954Z,99.90
2022-09-22T23:43:59.034Z,99.90
2022-09-22T23:46:26.932Z,99.90
2022-09-22T23:48:55.463Z,99.90
2022-09-22T23:51:23.901Z,99.90
2022-09-22T23:53:51.848Z,99.90
2022-09-22T23:56:20.186Z,99.90
2022-09-22T23:58:48.120Z,99.90
